Time;durP1;ratioP1;P1;durP2;ratioP2;P2;SDS_P1;SDS_P2;PMS_P1;PMS_P2;Temp;Humidity;BMP_temperature;BMP_pressure;BME280_temperature;BME280_humidity;BME280_pressure;Samples;Min_cycle;Max_cycle;Signal;HPM_P1;HPM_P2
2022/08/04 00:01:53;;;;;;;13.78;9.28;;;;;;;20.42;100.00;98552.83;1504761;93;21103;-74
2022/08/04 00:04:53;;;;;;;14.55;9.95;;;;;;;20.40;100.00;98532.50;1476654;97;21121;-74
2022/08/04 00:07:28;;;;;;;17.55;12.10;;;;;;;20.41;100.00;98536.88;1486350;95;21116;-74
2022/08/04 00:10:01;;;;;;;16.12;11.00;;;;;;;20.39;100.00;98533.59;1493920;96;21584;-74
2022/08/04 00:12:30;;;;;;;18.67;10.72;;;;;;;20.37;100.00;98527.55;1496334;96;21130;-74
2022/08/04 00:15:02;;;;;;;15.18;10.18;;;;;;;20.33;100.00;98526.45;1496573;96;21055;-74
2022/08/04 00:17:40;;;;;;;13.58;9.45;;;;;;;20.32;100.00;98522.61;1496476;96;21107;-74
2022/08/04 00:20:08;;;;;;;13.38;9.08;;;;;;;20.28;100.00;98524.52;1482810;96;21522;-74
2022/08/04 00:22:35;;;;;;;12.23;8.83;;;;;;;20.27;100.00;98517.92;1495311;96;21079;-73
2022/08/04 00:25:03;;;;;;;12.75;9.50;;;;;;;20.25;100.00;98518.75;1495455;96;21055;-74
2022/08/04 00:27:31;;;;;;;12.73;9.28;;;;;;;20.23;100.00;98514.09;1495381;96;21129;-74
2022/08/04 00:29:58;;;;;;;13.95;8.70;;;;;;;20.20;100.00;98517.36;1495330;96;21035;-74
2022/08/04 00:32:27;;;;;;;16.07;9.65;;;;;;;20.18;100.00;98516.26;1495382;96;21573;-74
2022/08/04 00:34:54;;;;;;;14.53;10.13;;;;;;;20.15;100.00;98511.34;1495493;96;21039;-74
2022/08/04 00:37:21;;;;;;;17.98;11.60;;;;;;;20.12;100.00;98505.01;1485207;96;21614;-74
2022/08/04 00:39:48;;;;;;;16.40;11.03;;;;;;;20.09;100.00;98509.10;1458772;98;21207;-74
2022/08/04 00:42:38;;;;;;;17.30;11.85;;;;;;;20.08;100.00;98501.98;1467413;96;21087;-74
2022/08/04 00:45:51;;;;;;;18.35;12.63;;;;;;;20.04;100.00;98495.92;1487797;96;21171;-74
2022/08/04 00:48:53;;;;;;;22.07;15.13;;;;;;;20.02;100.00;98494.00;1487626;96;21089;-74
2022/08/04 00:51:50;;;;;;;23.77;15.85;;;;;;;20.04;100.00;98483.58;1487697;96;21117;-74
2022/08/04 00:54:33;;;;;;;26.62;19.10;;;;;;;20.04;100.00;98475.34;1487508;96;21648;-74
2022/08/04 00:57:23;;;;;;;29.23;19.82;;;;;;;20.04;100.00;98465.22;1439870;97;21121;-74
2022/08/04 01:00:11;;;;;;;31.48;21.33;;;;;;;20.04;100.00;98465.22;1458998;98;21145;-74
2022/08/04 01:03:10;;;;;;;28.65;19.42;;;;;;;20.03;100.00;98454.52;1481800;96;21193;-74
2022/08/04 01:05:48;;;;;;;27.55;19.77;;;;;;;20.00;100.00;98452.31;1499723;96;21102;-74
2022/08/04 01:08:21;;;;;;;29.98;21.17;;;;;;;19.95;100.00;98454.48;1546563;93;21045;-74
2022/08/04 01:11:20;;;;;;;27.27;20.08;;;;;;;19.90;100.00;98449.83;1548229;93;21093;-74
2022/08/04 01:14:23;;;;;;;26.85;20.88;;;;;;;19.89;100.00;98450.91;1545511;93;21578;-74
2022/08/04 01:16:57;;;;;;;25.52;20.15;;;;;;;19.90;100.00;98438.86;1576765;89;21122;-74
2022/08/04 01:20:04;;;;;;;26.82;20.80;;;;;;;19.88;100.00;98428.70;1601949;89;21066;-74
2022/08/04 01:22:46;;;;;;;23.85;17.60;;;;;;;19.90;100.00;98423.77;1604737;89;21129;-74
2022/08/04 01:26:01;;;;;;;24.82;17.98;;;;;;;19.85;100.00;98421.57;1605013;89;21078;-74
2022/08/04 01:29:00;;;;;;;24.80;17.98;;;;;;;19.83;100.00;98421.84;1604703;89;21065;-74
2022/08/04 01:31:44;;;;;;;25.30;19.85;;;;;;;19.81;100.00;98416.33;1603611;85;21120;-73
2022/08/04 01:34:12;;;;;;;29.87;20.90;;;;;;;19.78;100.00;98416.86;1604445;89;21057;-74
2022/08/04 01:36:44;;;;;;;30.95;22.20;;;;;;;19.74;100.00;98408.36;1604441;89;21040;-74
2022/08/04 01:41:59;;;;;;;25.48;18.52;;;;;;;19.76;100.00;98415.79;1603908;89;21088;-74
2022/08/04 01:44:28;;;;;;;23.65;16.80;;;;;;;19.77;100.00;98406.45;1604307;89;21072;-73
2022/08/04 01:46:55;;;;;;;23.77;18.00;;;;;;;19.78;100.00;98405.89;1604340;89;21101;-73
2022/08/04 01:49:22;;;;;;;24.85;17.92;;;;;;;19.78;100.00;98401.26;1583565;89;21132;-73
2022/08/04 01:51:51;;;;;;;21.93;16.95;;;;;;;19.71;100.00;98397.37;1638764;86;21559;-73
2022/08/04 01:54:18;;;;;;;23.12;17.00;;;;;;;19.66;100.00;98395.98;1735302;80;21063;-73
2022/08/04 01:56:46;;;;;;;23.18;16.95;;;;;;;19.63;100.00;98395.70;1791717;80;21031;-73
2022/08/04 01:59:14;;;;;;;22.65;16.30;;;;;;;19.58;100.00;98398.42;1792087;80;21043;-73
2022/08/04 02:01:41;;;;;;;20.52;16.05;;;;;;;19.52;100.00;98403.08;1790036;80;21046;-73
2022/08/04 02:04:07;;;;;;;22.10;16.12;;;;;;;19.50;100.00;98403.89;1768418;81;21518;-73
2022/08/04 02:06:57;;;;;;;22.73;16.50;;;;;;;19.48;100.00;98407.45;1716712;81;21021;-73
2022/08/04 02:09:56;;;;;;;25.37;17.32;;;;;;;19.49;100.00;98409.09;1764807;81;20986;-73
2022/08/04 02:12:43;;;;;;;21.27;14.63;;;;;;;19.48;100.00;98404.16;1768461;80;21029;-73
2022/08/04 02:15:32;;;;;;;20.25;13.93;;;;;;;19.48;100.00;98402.79;1768665;81;21053;-73
2022/08/04 02:18:03;;;;;;;20.72;13.85;;;;;;;19.48;100.00;98389.09;1768198;81;21009;-73
2022/08/04 02:23:08;;;;;;;16.65;12.15;;;;;;;19.43;100.00;98370.44;1724387;83;21622;-73
2022/08/04 02:25:39;;;;;;;18.25;13.25;;;;;;;19.41;100.00;98361.67;1724582;83;21555;-73
2022/08/04 02:28:29;;;;;;;19.37;13.65;;;;;;;19.40;100.00;98363.56;1664128;86;21050;-73
2022/08/04 02:31:30;;;;;;;19.07;13.68;;;;;;;19.39;100.00;98355.60;1669734;86;21071;-73
2022/08/04 02:34:13;;;;;;;20.68;13.58;;;;;;;19.37;100.00;98351.79;1669563;86;21118;-73
2022/08/04 02:36:41;;;;;;;17.57;13.40;;;;;;;19.35;100.00;98351.20;1665110;86;21034;-73
2022/08/04 02:39:10;;;;;;;19.60;13.90;;;;;;;19.35;100.00;98350.69;1668235;86;21054;-73
2022/08/04 02:41:38;;;;;;;17.55;13.05;;;;;;;19.38;100.00;98352.60;1647907;87;21035;-73
2022/08/04 02:44:08;;;;;;;19.27;12.70;;;;;;;19.38;100.00;98344.38;1647777;87;21066;-73
2022/08/04 02:46:37;;;;;;;17.80;13.25;;;;;;;19.39;100.00;98341.38;1648245;87;21117;-73
2022/08/04 02:49:07;;;;;;;18.07;13.58;;;;;;;19.40;100.00;98338.89;1647941;87;21086;-74
2022/08/04 02:51:42;;;;;;;19.85;14.05;;;;;;;19.41;100.00;98336.45;1648021;87;21046;-73
2022/08/04 02:54:09;;;;;;;19.98;13.50;;;;;;;19.44;100.00;98335.06;1626109;87;21034;-73
2022/08/04 02:56:37;;;;;;;18.70;12.78;;;;;;;19.44;100.00;98331.80;1647865;87;21089;-74
2022/08/04 02:59:07;;;;;;;19.77;13.65;;;;;;;19.44;100.00;98333.70;1627257;87;21039;-74
2022/08/04 03:01:34;;;;;;;16.93;12.88;;;;;;;19.42;100.00;98337.26;1649403;87;21063;-73
2022/08/04 03:04:18;;;;;;;18.92;12.80;;;;;;;19.40;100.00;98329.30;1665636;86;21139;-73
2022/08/04 03:07:00;;;;;;;18.77;12.33;;;;;;;19.40;100.00;98328.48;1666962;86;21091;-73
2022/08/04 03:10:04;;;;;;;18.48;12.50;;;;;;;19.39;100.00;98319.98;1665904;86;21105;-74
2022/08/04 03:12:51;;;;;;;17.55;12.95;;;;;;;19.39;100.00;98324.09;1663889;86;21091;-73
2022/08/04 03:15:59;;;;;;;17.87;13.30;;;;;;;19.36;100.00;98322.73;1667151;86;21554;-73
2022/08/04 03:18:51;;;;;;;20.85;13.85;;;;;;;19.33;100.00;98310.92;1667106;85;21027;-74
2022/08/04 03:21:43;;;;;;;23.62;15.38;;;;;;;19.31;100.00;98312.56;1667003;85;21047;-77
2022/08/04 03:24:53;;;;;;;25.62;15.50;;;;;;;19.31;100.00;98307.08;1669558;85;21489;-73
2022/08/04 03:27:55;;;;;;;20.62;13.93;;;;;;;19.31;100.00;98294.75;1688175;84;21575;-73
2022/08/04 03:30:50;;;;;;;16.25;11.12;;;;;;;19.32;100.00;98282.71;1707646;84;21018;-73
2022/08/04 03:33:49;;;;;;;19.77;11.90;;;;;;;19.32;100.00;98266.27;1711159;84;21522;-73
2022/08/04 03:36:45;;;;;;;15.43;11.18;;;;;;;19.31;100.00;98261.87;1631720;87;20970;-73
2022/08/04 03:39:48;;;;;;;18.42;11.93;;;;;;;19.31;100.00;98234.47;1658759;86;21545;-73
2022/08/04 03:42:32;;;;;;;19.63;12.83;;;;;;;19.32;100.00;98225.16;1563776;89;21170;-73
2022/08/04 03:45:26;;;;;;;18.25;12.58;;;;;;;19.34;100.00;98220.23;1548253;93;21603;-73
2022/08/04 03:48:24;;;;;;;22.82;13.30;;;;;;;19.38;100.00;98221.06;1563540;92;21166;-76
2022/08/04 03:54:53;;;;;;;19.37;13.40;;;;;;;19.46;100.00;98199.42;1564034;92;21042;-74
2022/08/04 03:57:37;;;;;;;19.87;14.25;;;;;;;19.51;100.00;98184.88;1558655;92;21068;-74
2022/08/04 04:00:46;;;;;;;22.37;15.05;;;;;;;19.55;100.00;98173.66;1539117;93;21048;-74
2022/08/04 04:03:55;;;;;;;22.25;15.58;;;;;;;19.57;100.00;98171.45;1537022;93;21119;-75
2022/08/04 04:06:42;;;;;;;21.90;16.35;;;;;;;19.58;100.00;98155.81;1535705;93;21108;-74
2022/08/04 04:09:44;;;;;;;22.80;17.87;;;;;;;19.57;100.00;98150.08;1532625;93;21108;-75
2022/08/04 04:12:46;;;;;;;23.00;18.62;;;;;;;19.55;100.00;98147.61;1501896;95;21118;-74
2022/08/04 04:15:44;;;;;;;25.10;19.73;;;;;;;19.50;100.00;98129.23;1514962;95;21086;-76
2022/08/04 04:18:41;;;;;;;26.40;20.35;;;;;;;19.49;100.00;98126.77;1549100;90;21101;-75
2022/08/04 04:21:40;;;;;;;23.20;18.30;;;;;;;19.46;100.00;98119.09;1568804;89;21066;-74
2022/08/04 04:24:23;;;;;;;22.22;17.70;;;;;;;19.46;100.00;98107.60;1616423;89;21050;-75
2022/08/04 04:27:08;;;;;;;22.10;18.07;;;;;;;19.48;100.00;98087.59;1614667;88;21064;-75
2022/08/04 04:29:47;;;;;;;24.40;18.45;;;;;;;19.54;100.00;98067.84;1664171;86;21475;-75
2022/08/04 04:32:44;;;;;;;22.77;17.40;;;;;;;19.60;100.00;98060.41;1676017;86;21122;-74
2022/08/04 04:35:34;;;;;;;23.47;17.95;;;;;;;19.61;100.00;98046.44;1672736;86;21115;-75
2022/08/04 04:38:35;;;;;;;20.25;16.57;;;;;;;19.66;100.00;98028.59;1676264;86;21027;-74
2022/08/04 04:41:10;;;;;;;21.25;16.87;;;;;;;19.68;100.00;98016.80;1677247;86;21047;-75
2022/08/04 04:44:17;;;;;;;21.35;17.02;;;;;;;19.74;100.00;98008.03;1630872;88;21503;-74
2022/08/04 04:47:14;;;;;;;20.57;16.32;;;;;;;19.78;100.00;97990.47;1630414;88;21101;-74
2022/08/04 04:50:13;;;;;;;21.30;16.48;;;;;;;19.87;100.00;97981.95;1637889;88;21052;-74
2022/08/04 04:52:56;;;;;;;21.62;16.50;;;;;;;19.96;100.00;97977.50;1637627;88;21119;-75
2022/08/04 04:55:30;;;;;;;24.25;17.60;;;;;;;20.06;100.00;97965.63;1558100;92;21079;-76
2022/08/04 04:57:58;;;;;;;21.10;16.77;;;;;;;20.17;100.00;97956.78;1516641;94;21162;-76
2022/08/04 05:00:32;;;;;;;84.67;75.83;;;;;;;20.27;100.00;97950.70;1503973;95;21126;-74
2022/08/04 05:03:36;;;;;;;61.40;54.63;;;;;;;20.38;100.00;97942.37;1439528;99;21163;-78
2022/08/04 05:06:35;;;;;;;156.60;141.97;;;;;;;20.50;100.00;97933.21;1441151;100;21212;-76
2022/08/04 05:09:45;;;;;;;54.95;49.00;;;;;;;20.60;100.00;97926.83;1447832;98;21133;-75
2022/08/04 05:12:26;;;;;;;63.30;56.98;;;;;;;20.72;100.00;97918.25;1475567;97;21668;-75
2022/08/04 05:14:53;;;;;;;26.93;20.92;;;;;;;20.88;100.00;97915.61;1460950;98;21620;-77
2022/08/04 05:17:39;;;;;;;22.35;18.02;;;;;;;21.01;100.00;97918.22;1468650;97;21076;-77
2022/08/04 05:20:22;;;;;;;21.60;16.73;;;;;;;21.07;100.00;97918.98;1463011;97;21676;-74
2022/08/04 05:22:59;;;;;;;89.15;80.17;;;;;;;21.15;100.00;97923.84;1481123;97;21631;-75
2022/08/04 05:25:35;;;;;;;109.57;98.33;;;;;;;21.27;100.00;97921.50;1500530;94;21154;-75
2022/08/04 05:28:12;;;;;;;107.32;81.90;;;;;;;21.34;100.00;97930.22;1494388;96;21113;-75
2022/08/04 05:30:47;;;;;;;422.50;381.15;;;;;;;21.38;100.00;97938.13;1512813;94;21283;-77
2022/08/04 05:33:24;;;;;;;150.75;137.43;;;;;;;21.42;100.00;97947.45;1492222;96;21105;-75
2022/08/04 05:35:53;;;;;;;187.30;168.22;;;;;;;21.48;100.00;97950.98;1493423;95;21141;-76
2022/08/04 05:38:24;;;;;;;33.35;28.47;;;;;;;21.57;100.00;97956.64;1536802;93;21094;-76
2022/08/04 05:40:51;;;;;;;23.60;18.37;;;;;;;21.63;100.00;97967.02;1579722;89;21138;-74
2022/08/04 05:43:18;;;;;;;24.12;19.67;;;;;;;21.67;100.00;97974.94;1595939;90;21610;-78
2022/08/04 05:45:47;;;;;;;19.55;15.30;;;;;;;21.71;100.00;97987.82;1596136;88;21080;-77
2022/08/04 05:48:14;;;;;;;19.10;14.80;;;;;;;21.80;100.00;98001.17;1596257;90;21048;-74
2022/08/04 05:50:40;;;;;;;18.62;14.18;;;;;;;21.86;100.00;98021.75;1597109;87;21109;-75
2022/08/04 05:53:07;;;;;;;19.45;14.28;;;;;;;21.93;100.00;98031.83;1645149;86;21011;-77
2022/08/04 05:55:34;;;;;;;20.70;15.90;;;;;;;22.00;100.00;98044.11;1623351;87;21111;-75
2022/08/04 05:58:00;;;;;;;19.57;16.40;;;;;;;22.06;100.00;98061.93;1683505;83;21061;-76
2022/08/04 06:00:27;;;;;;;36.58;31.87;;;;;;;22.07;100.00;98085.03;1699695;83;21039;-78
2022/08/04 06:02:55;;;;;;;25.25;19.27;;;;;;;22.09;100.00;98102.06;1729925;82;20962;-77
2022/08/04 06:05:22;;;;;;;22.85;19.32;;;;;;;22.13;100.00;98125.16;1687104;85;21160;-77
2022/08/04 06:07:48;;;;;;;166.18;149.25;;;;;;;22.14;100.00;98137.78;1696009;85;20998;-76
2022/08/04 06:10:18;;;;;;;31.73;28.23;;;;;;;22.22;100.00;98154.20;1696241;85;21550;-75
2022/08/04 06:12:50;;;;;;;519.97;466.73;;;;;;;22.31;100.00;98162.66;1696335;85;21480;-75
2022/08/04 06:15:19;;;;;;;154.70;139.68;;;;;;;22.43;100.00;98171.32;1677422;85;21509;-79
2022/08/04 06:17:52;;;;;;;118.17;106.00;;;;;;;22.62;100.00;98173.30;1696788;83;21029;-74
2022/08/04 06:20:19;;;;;;;;;;;;;;;22.85;100.00;98176.55;1675796;86;21023;-79
2022/08/04 06:22:49;;;;;;;33.10;26.70;;;;;;;23.10;100.00;98180.09;1673453;86;20115;-78
2022/08/04 06:25:37;;;;;;;18.60;13.80;;;;;;;23.31;100.00;98187.48;1663378;84;21079;-77
2022/08/04 06:28:05;;;;;;;16.17;12.30;;;;;;;23.45;100.00;98203.53;1667108;86;21019;-79
2022/08/04 06:30:32;;;;;;;16.65;11.78;;;;;;;23.54;100.00;98234.00;1652272;87;21053;-76
2022/08/04 06:33:12;;;;;;;17.37;12.65;;;;;;;23.67;100.00;98255.33;1668259;86;21014;-79
2022/08/04 06:35:31;;;;;;;16.75;12.35;;;;;;;23.92;100.00;98264.33;1649223;87;21049;-74
2022/08/04 06:37:58;;;;;;;14.30;10.78;;;;;;;24.17;100.00;98278.24;1667204;86;21516;-77
2022/08/04 06:40:25;;;;;;;13.85;10.32;;;;;;;24.44;100.00;98293.22;1671942;86;21511;-78
2022/08/04 06:42:52;;;;;;;16.10;10.63;;;;;;;24.77;100.00;98308.35;1656596;85;21122;-78
2022/08/04 06:45:19;;;;;;;15.90;10.72;;;;;;;25.11;100.00;98332.02;1679782;85;21045;-78
2022/08/04 06:47:46;;;;;;;15.70;10.75;;;;;;;25.27;100.00;98361.02;1679650;85;21033;-78
2022/08/04 06:50:13;;;;;;;16.37;12.15;;;;;;;25.31;100.00;98406.28;1679736;85;21048;-78
2022/08/04 06:52:42;;;;;;;18.05;11.95;;;;;;;25.46;100.00;98471.56;1679506;85;21105;-77
2022/08/04 06:55:09;;;;;;;17.10;12.07;;;;;;;25.50;100.00;98547.28;1657232;85;21098;-78
2022/08/04 06:57:36;;;;;;;14.90;11.10;;;;;;;25.43;100.00;98594.45;1657187;85;21061;-78
2022/08/04 07:00:12;;;;;;;13.05;10.18;;;;;;;25.31;100.00;98649.70;1679031;85;21064;-80
2022/08/04 07:02:51;;;;;;;15.85;10.78;;;;;;;25.20;100.00;98673.92;1679463;85;21578;-81
2022/08/04 07:05:18;;;;;;;15.35;10.55;;;;;;;25.24;100.00;98685.77;1671314;84;21424;-81
2022/08/04 07:07:47;;;;;;;21.62;16.30;;;;;;;25.35;100.00;98685.31;1670715;86;21148;-78
2022/08/04 07:10:16;;;;;;;16.85;10.60;;;;;;;25.51;100.00;98694.19;1671202;86;21020;-75
2022/08/04 07:12:42;;;;;;;14.93;10.20;;;;;;;25.75;100.00;98689.09;1668189;86;21365;-76
2022/08/04 07:15:10;;;;;;;13.48;9.03;;;;;;;25.97;100.00;98695.34;1666899;86;20998;-75
2022/08/04 07:17:37;;;;;;;13.75;9.30;;;;;;;26.04;100.00;98714.34;1666958;86;21050;-79
2022/08/04 07:20:08;;;;;;;14.80;9.98;;;;;;;25.90;100.00;98749.70;1667148;86;21049;-82
2022/08/04 07:22:35;;;;;;;12.05;9.15;;;;;;;25.79;100.00;98769.02;1667643;86;21535;-78
2022/08/04 07:25:06;;;;;;;14.63;10.40;;;;;;;25.70;100.00;98771.65;1667622;86;21588;-79
2022/08/04 07:27:33;;;;;;;18.12;13.53;;;;;;;25.63;100.00;98791.16;1665634;86;21058;-80
2022/08/04 07:30:00;;;;;;;20.00;14.98;;;;;;;25.56;100.00;98808.14;1674268;86;21081;-82
2022/08/04 07:32:26;;;;;;;19.10;12.95;;;;;;;25.55;100.00;98802.33;1673626;86;21050;-81
2022/08/04 07:34:53;;;;;;;15.18;9.93;;;;;;;25.61;100.00;98799.76;1674370;86;21078;-79
2022/08/04 07:37:20;;;;;;;11.90;8.58;;;;;;;25.67;100.00;98810.18;1682900;85;20963;-77
2022/08/04 07:39:47;;;;;;;11.73;8.03;;;;;;;25.80;100.00;98816.36;1686954;85;21082;-78
2022/08/04 07:42:16;;;;;;;13.88;8.33;;;;;;;25.87;100.00;98822.86;1687698;85;21018;-80
2022/08/04 07:44:44;;;;;;;9.95;7.75;;;;;;;25.89;100.00;98843.61;1681496;85;21059;-80
2022/08/04 07:47:10;;;;;;;12.53;8.43;;;;;;;25.93;100.00;98849.36;1665330;85;21089;-81
2022/08/04 07:49:41;;;;;;;16.40;12.45;;;;;;;25.94;100.00;98871.25;1688294;85;21046;-78
2022/08/04 07:52:08;;;;;;;18.82;13.43;;;;;;;25.93;100.00;98875.67;1638372;86;21030;-79
2022/08/04 07:54:35;;;;;;;17.77;13.58;;;;;;;25.92;100.00;98886.47;1637395;86;21074;-78
2022/08/04 07:57:01;;;;;;;19.00;14.18;;;;;;;25.88;100.00;98881.28;1657474;86;21572;-78
2022/08/04 07:59:28;;;;;;;18.37;12.90;;;;;;;25.81;100.00;98883.61;1640076;87;21062;-77
2022/08/04 08:02:00;;;;;;;17.95;13.25;;;;;;;25.69;100.00;98886.28;1671555;85;21116;-79
2022/08/04 08:04:27;;;;;;;18.75;13.80;;;;;;;25.56;100.00;98889.78;1661565;85;21082;-76
2022/08/04 08:06:54;;;;;;;22.95;17.32;;;;;;;25.42;100.00;98886.11;1656007;87;21512;-77
2022/08/04 08:09:22;;;;;;;22.90;18.07;;;;;;;25.25;100.00;98890.20;1630570;88;21027;-76
2022/08/04 08:11:51;;;;;;;23.55;18.45;;;;;;;24.97;100.00;98896.85;1655738;87;21051;-76
2022/08/04 08:14:18;;;;;;;23.07;17.70;;;;;;;24.72;100.00;98895.73;1630606;88;21070;-77
2022/08/04 08:16:48;;;;;;;23.27;17.07;;;;;;;24.52;100.00;98896.17;1656305;87;21026;-75
2022/08/04 08:19:15;;;;;;;23.22;19.57;;;;;;;24.34;100.00;98891.39;1630975;88;21043;-78
2022/08/04 08:21:48;;;;;;;25.32;20.55;;;;;;;24.20;100.00;98891.22;1656492;87;21500;-75
2022/08/04 08:24:15;;;;;;;;;;;;;;;24.09;100.00;98886.34;1633483;88;21071;-79
2022/08/04 08:26:42;;;;;;;25.05;19.30;;;;;;;23.97;100.00;98884.51;1663652;86;20191;-77
2022/08/04 08:29:09;;;;;;;25.97;19.85;;;;;;;23.85;100.00;98877.95;1663593;85;21021;-79
2022/08/04 08:31:35;;;;;;;33.75;22.37;;;;;;;23.70;100.00;98871.41;1646090;87;21480;-77
2022/08/04 08:34:02;;;;;;;23.50;18.65;;;;;;;23.62;100.00;98864.28;1670986;85;21099;-78
2022/08/04 08:36:37;;;;;;;22.25;18.02;;;;;;;23.44;100.00;98858.88;1664344;85;21040;-79
2022/08/04 08:39:18;;;;;;;21.70;17.32;;;;;;;23.14;100.00;98863.44;1706037;83;20986;-79
2022/08/04 08:42:10;;;;;;;23.15;17.82;;;;;;;22.86;100.00;98845.07;1693628;85;21531;-78
2022/08/04 08:44:58;;;;;;;26.80;18.67;;;;;;;22.68;100.00;98840.16;1694032;84;21050;-77
2022/08/04 08:48:13;;;;;;;22.20;18.37;;;;;;;22.52;100.00;98825.59;1669032;86;21060;-77
2022/08/04 08:51:12;;;;;;;25.10;21.80;;;;;;;22.45;100.00;98811.30;1632194;86;32427;-78
2022/08/04 08:54:08;;;;;;;24.70;18.73;;;;;;;22.47;100.00;98792.55;1668688;86;21072;-79
2022/08/04 08:57:09;;;;;;;264.15;238.30;;;;;;;22.54;100.00;98777.94;1673452;85;20956;-77
2022/08/04 09:00:11;;;;;;;34.03;30.35;;;;;;;22.48;100.00;98761.98;1633190;88;21112;-78
2022/08/04 09:03:05;;;;;;;24.72;18.65;;;;;;;22.45;100.00;98753.46;1508879;95;21101;-75
2022/08/04 09:06:07;;;;;;;23.25;17.65;;;;;;;22.37;100.00;98744.67;1511149;94;21160;-77
2022/08/04 09:09:11;;;;;;;22.00;17.42;;;;;;;22.28;100.00;98738.10;1508159;93;21101;-82
2022/08/04 09:12:17;;;;;;;95.77;85.87;;;;;;;22.21;100.00;98728.47;1520656;93;21075;-75
2022/08/04 09:15:04;;;;;;;26.85;21.35;;;;;;;22.11;100.00;98716.91;1517987;94;21052;-75
2022/08/04 09:17:51;;;;;;;23.47;18.80;;;;;;;22.08;100.00;98711.96;1516894;94;21545;-80
2022/08/04 09:20:41;;;;;;;22.52;17.30;;;;;;;22.09;100.00;98705.36;1514649;94;21097;-77
2022/08/04 09:23:36;;;;;;;26.23;20.85;;;;;;;22.11;100.00;98697.09;1518373;92;21111;-80
2022/08/04 09:26:39;;;;;;;22.25;17.37;;;;;;;22.16;100.00;98682.49;1532239;93;21143;-79
2022/08/04 09:29:11;;;;;;;21.48;16.02;;;;;;;22.22;100.00;98670.34;1539625;91;21118;-78
2022/08/04 09:31:59;;;;;;;21.55;16.12;;;;;;;22.30;100.00;98658.80;1524987;94;21112;-78
2022/08/04 09:34:52;;;;;;;20.97;16.45;;;;;;;22.43;100.00;98653.22;1522582;94;21612;-77
2022/08/04 09:37:34;;;;;;;20.77;16.45;;;;;;;22.56;100.00;98653.17;1534934;90;21151;-80
2022/08/04 09:40:28;;;;;;;68.33;61.28;;;;;;;22.72;100.00;98645.65;1603419;89;21175;-80
2022/08/04 09:43:34;;;;;;;52.23;46.98;;;;;;;22.94;100.00;98635.00;1608052;88;21081;-78
2022/08/04 09:46:24;;;;;;;21.60;16.00;;;;;;;23.16;100.00;98624.14;1619056;87;21058;-82
2022/08/04 09:49:04;;;;;;;19.05;14.15;;;;;;;23.33;100.00;98614.05;1681678;85;21505;-80
2022/08/04 09:51:52;;;;;;;18.20;13.53;;;;;;;23.52;100.00;98614.72;1683436;85;20980;-80
2022/08/04 09:54:52;;;;;;;25.37;20.25;;;;;;;23.65;100.00;98618.16;1707536;83;21076;-81
2022/08/04 09:57:40;;;;;;;21.37;16.57;;;;;;;23.78;100.00;98631.27;1706231;83;21044;-80
2022/08/04 10:00:15;;;;;;;19.15;13.10;;;;;;;23.94;100.00;98649.91;1777932;79;20984;-78
2022/08/04 10:02:57;;;;;;;17.40;12.43;;;;;;;24.19;100.00;98655.68;1798184;79;21008;-85
2022/08/04 10:05:40;;;;;;;17.37;12.37;;;;;;;24.44;100.00;98674.44;1783827;79;21039;-81
2022/08/04 10:08:36;;;;;;;19.15;12.40;;;;;;;24.69;100.00;98687.69;1749936;81;21009;-79
2022/08/04 10:11:08;;;;;;;16.00;12.37;;;;;;;24.92;100.00;98705.33;1752987;81;21543;-79
2022/08/04 10:14:02;;;;;;;18.73;11.55;;;;;;;25.33;100.00;98723.53;1752589;81;21013;-78
2022/08/04 10:17:05;;;;;;;16.10;10.35;;;;;;;25.86;100.00;98734.02;1717769;83;21024;-78
2022/08/04 10:19:38;;;;;;;15.48;10.05;;;;;;;26.36;100.00;98748.64;1716951;83;21083;-79
2022/08/04 10:22:18;;;;;;;19.02;12.70;;;;;;;26.66;100.00;98768.83;1717115;83;21039;-79
2022/08/04 10:25:24;;;;;;;18.25;12.88;;;;;;;26.88;100.00;98794.45;1717196;83;21058;-80
2022/08/04 10:27:54;;;;;;;17.37;10.23;;;;;;;27.19;100.00;98826.27;1717440;83;21027;-78
2022/08/04 10:30:22;;;;;;;17.35;12.13;;;;;;;27.53;100.00;98867.44;1717068;83;21490;-77
2022/08/04 10:33:03;;;;;;;18.70;12.63;;;;;;;27.81;100.00;98897.34;1717225;83;21067;-79
2022/08/04 10:35:51;;;;;;;17.87;10.95;;;;;;;28.13;100.00;98914.14;1716955;83;21537;-78
2022/08/04 10:38:39;;;;;;;16.80;11.43;;;;;;;28.49;100.00;98926.59;1663663;86;21536;-77
2022/08/04 10:41:28;;;;;;;15.00;10.03;;;;;;;28.73;100.00;98965.19;1644116;87;21035;-78
2022/08/04 10:44:22;;;;;;;15.05;10.15;;;;;;;28.90;100.00;99002.03;1644195;84;21032;-77
2022/08/04 10:46:51;;;;;;;15.43;10.05;;;;;;;29.01;100.00;99002.59;1640325;87;21079;-75
2022/08/04 10:49:27;;;;;;;14.68;10.88;;;;;;;28.95;100.00;99024.16;1643959;87;21063;-77
2022/08/04 10:52:04;;;;;;;14.63;10.90;;;;;;;28.87;100.00;99036.62;1643763;86;21625;-77
2022/08/04 10:54:54;;;;;;;15.43;11.05;;;;;;;28.85;100.00;99034.73;1643619;87;21087;-82
2022/08/04 10:57:35;;;;;;;15.32;10.90;;;;;;;28.76;100.00;99046.61;1649781;86;21101;-78
2022/08/04 11:00:13;;;;;;;15.13;11.30;;;;;;;28.64;100.00;99079.73;1672486;86;21045;-78
2022/08/04 11:02:56;;;;;;;16.80;12.03;;;;;;;28.45;100.00;99100.70;1672296;86;21041;-79
2022/08/04 11:05:55;;;;;;;17.00;10.98;;;;;;;28.19;100.00;99125.48;1703572;84;21112;-78
2022/08/04 11:08:30;;;;;;;16.60;10.95;;;;;;;27.88;100.00;99139.14;1709474;84;21049;-81
2022/08/04 11:11:25;;;;;;;15.75;11.15;;;;;;;27.48;100.00;99155.42;1642929;87;21096;-79
2022/08/04 11:14:16;;;;;;;18.25;11.35;;;;;;;27.27;100.00;99153.02;1636648;87;21053;-79
2022/08/04 11:17:07;;;;;;;22.65;12.03;;;;;;;27.13;100.00;99147.93;1634907;88;21120;-77
2022/08/04 11:20:17;;;;;;;15.98;10.53;;;;;;;26.98;100.00;99149.02;1657363;86;21052;-80
2022/08/04 11:23:01;;;;;;;15.98;10.88;;;;;;;26.88;100.00;99136.15;1660158;86;21095;-79
2022/08/04 11:25:49;;;;;;;15.78;11.22;;;;;;;26.80;100.00;99136.81;1660083;82;21104;-78
2022/08/04 11:28:38;;;;;;;14.83;10.38;;;;;;;26.68;100.00;99156.67;1659981;86;21068;-77
2022/08/04 11:31:23;;;;;;;15.80;10.90;;;;;;;26.50;100.00;99172.95;1660025;86;21530;-78
2022/08/04 11:34:12;;;;;;;19.23;10.88;;;;;;;26.37;100.00;99170.11;1660059;86;21056;-78
2022/08/04 11:37:33;;;;;;;18.90;11.00;;;;;;;26.34;100.00;99158.47;1615850;88;21061;-80
2022/08/04 11:40:10;;;;;;;17.65;12.63;;;;;;;26.32;100.00;99155.18;1576754;90;21067;-79
2022/08/04 11:42:40;;;;;;;16.50;11.57;;;;;;;26.32;100.00;99158.52;1566409;92;21061;-79
2022/08/04 11:45:19;;;;;;;16.95;11.00;;;;;;;26.32;100.00;99151.02;1566185;91;21537;-79
2022/08/04 11:47:59;;;;;;;16.30;11.30;;;;;;;26.35;100.00;99139.92;1544399;92;21065;-75
2022/08/04 11:50:47;;;;;;;17.77;12.68;;;;;;;26.36;100.00;99136.02;1593794;89;21083;-78
2022/08/04 11:53:20;;;;;;;18.87;12.45;;;;;;;26.38;100.00;99135.72;1567686;91;21073;-78
2022/08/04 11:55:52;;;;;;;14.38;10.88;;;;;;;26.43;100.00;99132.87;1567392;91;21055;-79
2022/08/04 11:58:20;;;;;;;21.37;11.90;;;;;;;26.54;100.00;99117.74;1553707;92;21066;-76
2022/08/04 12:01:19;;;;;;;16.85;10.85;;;;;;;26.82;100.00;99101.28;1553991;92;21097;-80
2022/08/04 12:04:06;;;;;;;14.25;9.90;;;;;;;27.22;100.00;99101.16;1554178;92;21067;-76
2022/08/04 12:06:58;;;;;;;15.18;10.68;;;;;;;27.76;100.00;99121.58;1553669;92;21193;-77
2022/08/04 12:09:45;;;;;;;14.03;10.35;;;;;;;28.18;100.00;99143.28;1542096;92;21094;-77
2022/08/04 12:12:26;;;;;;;16.27;10.50;;;;;;;28.53;100.00;99164.50;1544368;93;21128;-77
2022/08/04 12:15:21;;;;;;;13.72;9.83;;;;;;;28.76;100.00;99171.78;1586640;90;21074;-76
2022/08/04 12:18:05;;;;;;;17.77;10.60;;;;;;;28.94;100.00;99181.09;1601252;90;21101;-77
2022/08/04 12:20:37;;;;;;;12.90;10.08;;;;;;;28.96;100.00;99201.66;1600684;90;21098;-76